Time;durP1;ratioP1;P1;durP2;ratioP2;P2;SDS_P1;SDS_P2;PMS_P1;PMS_P2;Temp;Humidity;BMP_temperature;BMP_pressure;BME280_temperature;BME280_humidity;BME280_pressure;Samples;Min_cycle;Max_cycle;Signal;HPM_P1;HPM_P2
2023/07/07 00:00:03;;;;;;;17.80;9.52;;;;;;;23.05;69.22;99335.13;5117573;27;20035;-69
2023/07/07 00:02:33;;;;;;;13.50;9.35;;;;;;;23.10;68.98;99277.44;5117699;27;20435;-70
2023/07/07 00:04:58;;;;;;;13.77;9.90;;;;;;;23.08;69.18;99326.56;5117140;27;20057;-69
2023/07/07 00:07:23;;;;;;;12.60;9.88;;;;;;;23.06;69.18;99330.53;5117328;27;20045;-68
2023/07/07 00:09:49;;;;;;;13.23;9.63;;;;;;;22.96;70.19;99332.75;5098814;27;20041;-69
2023/07/07 00:12:16;;;;;;;13.68;10.35;;;;;;;22.96;70.05;99336.31;5117320;27;20401;-69
2023/07/07 00:14:41;;;;;;;13.60;10.05;;;;;;;22.94;69.89;99326.66;5117146;27;20043;-72
2023/07/07 00:17:06;;;;;;;13.40;10.50;;;;;;;22.93;70.15;99325.81;5117420;27;20065;-69
2023/07/07 00:19:32;;;;;;;13.35;10.90;;;;;;;22.92;69.98;99335.00;5116476;27;20817;-69
2023/07/07 00:21:59;;;;;;;13.43;10.23;;;;;;;22.88;70.13;99354.66;5117009;27;20055;-70
2023/07/07 00:24:25;;;;;;;12.95;10.68;;;;;;;22.80;70.55;99325.69;5117006;27;20050;-69
2023/07/07 00:26:51;;;;;;;13.50;10.38;;;;;;;22.85;70.43;99339.56;5080873;27;20047;-70
2023/07/07 00:29:17;;;;;;;10.82;9.70;;;;;;;22.84;70.46;99343.31;5097098;27;20042;-67
2023/07/07 00:31:42;;;;;;;13.68;10.70;;;;;;;22.75;70.96;99345.31;5116561;27;20058;-66
2023/07/07 00:34:07;;;;;;;15.70;10.02;;;;;;;22.72;70.88;99333.97;5098341;27;20038;-68
2023/07/07 00:36:34;;;;;;;17.10;10.52;;;;;;;22.72;70.99;99340.25;5098415;27;20493;-69
2023/07/07 00:39:00;;;;;;;12.65;9.52;;;;;;;22.78;70.13;99339.50;5116523;27;20548;-66
2023/07/07 00:41:27;;;;;;;13.45;10.50;;;;;;;22.72;70.40;99333.97;5116245;27;20485;-68
2023/07/07 00:44:02;;;;;;;16.80;10.20;;;;;;;22.64;70.73;99315.94;5097655;27;20046;-68
2023/07/07 00:46:28;;;;;;;15.00;11.40;;;;;;;22.56;71.18;99307.91;5116598;27;20046;-69
2023/07/07 00:48:55;;;;;;;13.00;10.13;;;;;;;22.59;71.16;99323.81;5117053;27;20046;-67
2023/07/07 00:51:32;;;;;;;14.93;9.65;;;;;;;22.56;71.86;99318.78;5117100;27;20046;-67
2023/07/07 00:53:58;;;;;;;12.35;10.23;;;;;;;22.33;72.77;99318.97;5116913;27;20039;-68
2023/07/07 00:56:41;;;;;;;12.00;9.35;;;;;;;22.33;72.98;99339.84;5117306;27;20412;-68
2023/07/07 00:59:15;;;;;;;15.18;8.98;;;;;;;22.36;72.68;99312.28;5116542;27;20431;-67
2023/07/07 01:01:41;;;;;;;11.63;9.50;;;;;;;22.32;72.66;99311.84;5097540;27;20449;-66
2023/07/07 01:04:16;;;;;;;17.38;9.95;;;;;;;22.28;73.26;99299.69;5097607;27;20051;-67
2023/07/07 01:06:47;;;;;;;13.63;10.02;;;;;;;22.25;73.56;99321.78;5080726;27;20556;-66
2023/07/07 01:09:12;;;;;;;11.82;9.23;;;;;;;22.30;72.73;99300.34;5097695;27;20551;-66
2023/07/07 01:11:38;;;;;;;11.15;8.60;;;;;;;22.31;73.18;99299.31;5097636;27;20043;-67
2023/07/07 01:14:27;;;;;;;15.10;10.25;;;;;;;22.34;73.43;99304.34;5096564;27;20046;-66
2023/07/07 01:17:14;;;;;;;12.23;9.32;;;;;;;22.28;73.54;99287.97;5115877;27;20046;-67
2023/07/07 01:20:13;;;;;;;14.30;9.50;;;;;;;22.35;73.51;99297.88;5096169;27;20039;-65
2023/07/07 01:23:10;;;;;;;12.60;9.27;;;;;;;22.34;73.57;99287.22;5115159;27;20046;-66
2023/07/07 01:25:55;;;;;;;11.98;9.30;;;;;;;22.29;73.74;99284.22;5097365;27;20050;-65
2023/07/07 01:28:31;;;;;;;13.40;9.45;;;;;;;22.24;74.41;99279.38;5097222;27;20519;-64
2023/07/07 01:31:07;;;;;;;12.68;9.13;;;;;;;22.27;74.16;99264.56;5115949;27;20530;-65
2023/07/07 01:33:34;;;;;;;11.98;9.20;;;;;;;22.34;73.46;99260.06;5115637;27;20527;-65
2023/07/07 01:35:59;;;;;;;14.20;11.00;;;;;;;22.25;73.55;99255.78;5091588;27;20043;-65
2023/07/07 01:38:49;;;;;;;13.40;9.55;;;;;;;22.30;73.49;99265.03;5115020;27;20057;-67
2023/07/07 01:41:38;;;;;;;11.52;9.10;;;;;;;22.28;73.94;99283.38;5096595;27;20058;-66
2023/07/07 01:44:22;;;;;;;11.98;9.18;;;;;;;22.21;73.91;99249.91;5115695;27;20046;-64
2023/07/07 01:47:15;;;;;;;12.00;9.02;;;;;;;22.22;74.20;99245.31;5096588;27;20085;-65
2023/07/07 01:49:56;;;;;;;13.98;9.13;;;;;;;22.21;74.33;99232.78;5104696;27;20043;-66
2023/07/07 01:52:27;;;;;;;9.98;8.98;;;;;;;22.24;73.63;99241.34;5093428;28;20043;-65
2023/07/07 01:54:57;;;;;;;12.23;9.55;;;;;;;22.18;74.63;99230.44;5096992;27;20046;-66
2023/07/07 01:57:26;;;;;;;9.80;8.43;;;;;;;22.15;74.85;99228.94;5079658;27;20038;-67
2023/07/07 01:59:51;;;;;;;12.30;9.25;;;;;;;22.19;74.16;99235.69;5096225;27;20042;-67
2023/07/07 02:02:17;;;;;;;11.02;9.48;;;;;;;22.18;74.60;99250.28;5115037;27;20050;-66
2023/07/07 02:04:43;;;;;;;13.38;10.13;;;;;;;22.33;73.72;99228.50;5093502;27;20059;-67
2023/07/07 02:07:09;;;;;;;15.07;10.20;;;;;;;22.31;73.89;99222.41;5094431;27;20055;-67
2023/07/07 02:09:34;;;;;;;16.17;9.18;;;;;;;22.29;74.37;99229.91;5113622;27;20035;-66
2023/07/07 02:11:59;;;;;;;16.23;10.25;;;;;;;22.29;74.51;99241.63;5097020;27;20412;-68
2023/07/07 02:14:24;;;;;;;9.38;8.38;;;;;;;22.31;74.41;99236.00;5115211;27;20045;-67
2023/07/07 02:16:50;;;;;;;14.13;10.05;;;;;;;22.28;74.95;99245.38;5096821;27;20047;-66
2023/07/07 02:19:17;;;;;;;11.98;9.15;;;;;;;22.32;74.68;99245.84;5115314;27;20093;-67
2023/07/07 02:21:42;;;;;;;11.43;9.63;;;;;;;22.34;74.69;99235.63;5079020;27;20412;-66
2023/07/07 02:24:07;;;;;;;12.98;10.32;;;;;;;22.40;74.13;99232.94;5115215;27;20026;-67
2023/07/07 02:26:32;;;;;;;12.32;9.30;;;;;;;22.46;74.27;99232.16;5115003;27;20046;-68
2023/07/07 02:28:58;;;;;;;11.98;9.23;;;;;;;22.48;74.12;99236.56;5114878;27;20065;-67
2023/07/07 02:31:24;;;;;;;12.75;9.23;;;;;;;22.52;74.22;99240.56;5115198;27;20060;-66
2023/07/07 02:33:53;;;;;;;14.80;10.35;;;;;;;22.55;74.19;99246.47;5096964;27;20042;-67
2023/07/07 02:36:19;;;;;;;18.33;10.43;;;;;;;22.59;74.07;99241.44;5114454;27;20054;-67
2023/07/07 02:38:45;;;;;;;12.07;10.50;;;;;;;22.69;73.78;99237.34;5111334;27;20037;-68
2023/07/07 02:41:11;;;;;;;13.02;9.38;;;;;;;22.72;73.45;99247.00;5079257;27;20053;-67
2023/07/07 02:43:36;;;;;;;12.95;8.95;;;;;;;22.80;73.37;99239.56;5096389;27;20042;-67
2023/07/07 02:46:02;;;;;;;14.55;10.23;;;;;;;22.96;72.68;99243.88;5096552;27;20053;-67
2023/07/07 02:48:27;;;;;;;13.73;9.65;;;;;;;23.01;72.14;99252.28;5096995;27;20508;-68
2023/07/07 02:51:00;;;;;;;13.00;9.85;;;;;;;22.96;72.48;99253.91;5118675;27;20619;-67
2023/07/07 02:53:28;;;;;;;11.93;8.90;;;;;;;22.97;72.89;99255.59;5083487;27;20043;-68
2023/07/07 02:55:54;;;;;;;11.57;9.63;;;;;;;23.06;72.13;99238.91;5080094;27;20413;-69
2023/07/07 02:58:20;;;;;;;12.10;9.82;;;;;;;23.05;72.18;99247.28;5088344;27;20035;-68
2023/07/07 03:00:46;;;;;;;12.55;8.70;;;;;;;23.14;72.00;99256.94;5100493;27;20049;-69
2023/07/07 03:03:12;;;;;;;12.88;9.00;;;;;;;23.15;72.19;99280.38;5098677;27;20043;-70
2023/07/07 03:05:38;;;;;;;11.50;9.57;;;;;;;23.38;71.67;99234.69;5064323;27;20057;-69
2023/07/07 03:08:03;;;;;;;12.75;9.35;;;;;;;23.42;71.28;99246.03;5100266;27;20049;-69
2023/07/07 03:10:34;;;;;;;12.52;9.95;;;;;;;23.48;71.56;99251.50;5099290;27;20050;-68
2023/07/07 03:13:01;;;;;;;12.30;8.93;;;;;;;23.57;70.96;99268.53;5065976;27;20043;-69
2023/07/07 03:15:29;;;;;;;13.70;8.88;;;;;;;23.67;70.34;99258.13;5100102;27;20046;-70
2023/07/07 03:17:55;;;;;;;12.73;9.55;;;;;;;23.71;70.33;99255.81;5100096;27;20050;-70
2023/07/07 03:20:26;;;;;;;12.23;9.55;;;;;;;23.83;69.99;99278.69;5118510;27;20039;-69
2023/07/07 03:22:52;;;;;;;12.70;9.10;;;;;;;23.86;69.53;99262.78;5099516;27;20046;-70
2023/07/07 03:25:20;;;;;;;12.73;9.10;;;;;;;23.72;70.17;99273.81;5099976;27;20045;-71
2023/07/07 03:27:51;;;;;;;12.55;9.18;;;;;;;23.71;69.78;99264.81;5099716;27;20058;-69
2023/07/07 03:30:34;;;;;;;14.27;9.50;;;;;;;23.74;70.28;99253.53;5099749;27;20087;-70
2023/07/07 03:33:08;;;;;;;13.98;9.32;;;;;;;23.76;69.33;99254.16;5084035;27;20047;-70
2023/07/07 03:35:34;;;;;;;14.07;10.13;;;;;;;23.61;69.91;99252.63;5099997;27;20833;-70
2023/07/07 03:37:59;;;;;;;14.13;8.45;;;;;;;23.63;69.70;99240.50;5082553;27;20051;-71
2023/07/07 03:40:24;;;;;;;12.50;8.88;;;;;;;23.68;69.61;99253.50;5098804;27;20409;-69
2023/07/07 03:42:51;;;;;;;12.30;10.10;;;;;;;23.68;69.56;99261.69;5082496;27;20042;-69
2023/07/07 03:45:16;;;;;;;13.50;9.77;;;;;;;23.75;69.12;99255.22;5117853;27;20043;-70
2023/07/07 03:47:44;;;;;;;11.80;9.57;;;;;;;23.70;69.35;99254.16;5099392;27;20412;-69
2023/07/07 03:50:11;;;;;;;12.55;9.07;;;;;;;23.79;69.39;99251.03;5099403;27;20047;-70
2023/07/07 03:52:36;;;;;;;12.48;8.60;;;;;;;23.82;69.38;99282.44;5081280;27;20054;-71
2023/07/07 03:55:02;;;;;;;10.98;9.75;;;;;;;23.93;69.38;99267.44;5077723;27;20070;-69
2023/07/07 03:57:30;;;;;;;11.48;9.60;;;;;;;24.01;69.06;99297.19;5079027;27;20401;-69
2023/07/07 03:59:55;;;;;;;11.75;9.63;;;;;;;24.07;68.21;99266.41;5094966;27;20375;-69
2023/07/07 04:02:21;;;;;;;13.30;9.85;;;;;;;23.85;68.91;99276.59;5078454;27;20050;-69
2023/07/07 04:04:46;;;;;;;10.80;9.55;;;;;;;23.93;68.82;99268.25;5078488;27;20529;-68
2023/07/07 04:07:12;;;;;;;15.07;10.45;;;;;;;23.94;68.64;99264.47;5086593;27;20046;-70
2023/07/07 04:09:38;;;;;;;12.57;9.38;;;;;;;23.97;68.85;99253.19;5117264;27;20035;-69
2023/07/07 04:12:07;;;;;;;10.40;8.43;;;;;;;24.11;68.79;99257.63;5117492;27;20042;-70
2023/07/07 04:14:32;;;;;;;12.30;8.75;;;;;;;24.27;68.49;99285.56;5081859;27;20043;-69
2023/07/07 04:16:58;;;;;;;13.43;9.75;;;;;;;24.59;67.82;99257.53;5095401;27;20065;-69
2023/07/07 04:19:23;;;;;;;9.73;8.68;;;;;;;24.86;67.24;99264.63;5095614;27;20047;-69
2023/07/07 04:21:48;;;;;;;13.15;8.60;;;;;;;25.14;65.37;99249.97;5096619;27;20054;-69
2023/07/07 04:24:19;;;;;;;12.45;8.23;;;;;;;25.46;64.70;99237.28;5095720;27;20967;-71
2023/07/07 04:26:44;;;;;;;14.43;9.38;;;;;;;25.41;63.72;99248.81;5103413;27;20405;-71
2023/07/07 04:29:09;;;;;;;10.05;8.00;;;;;;;25.03;64.78;99237.81;5098487;27;20050;-69
2023/07/07 04:31:34;;;;;;;16.10;8.90;;;;;;;24.87;65.03;99244.50;5098071;27;20409;-70
2023/07/07 04:34:00;;;;;;;13.60;8.40;;;;;;;24.89;65.62;99242.41;5081164;27;20046;-70
2023/07/07 04:36:25;;;;;;;9.75;8.38;;;;;;;24.93;65.37;99235.53;5098485;27;20489;-70
2023/07/07 04:38:50;;;;;;;9.02;7.93;;;;;;;24.92;65.66;99250.22;5080747;27;20050;-69
2023/07/07 04:41:24;;;;;;;12.15;8.52;;;;;;;24.85;65.13;99262.97;5098486;27;20042;-69
2023/07/07 04:43:52;;;;;;;10.30;7.60;;;;;;;24.77;65.33;99256.88;5097760;27;20042;-70
2023/07/07 04:46:23;;;;;;;12.15;8.63;;;;;;;24.65;65.02;99248.50;5116733;27;20049;-70
2023/07/07 04:48:48;;;;;;;9.43;8.50;;;;;;;24.45;65.67;99253.09;5116420;27;20046;-71
2023/07/07 04:51:14;;;;;;;11.00;9.43;;;;;;;24.26;66.85;99251.19;5116690;27;20045;-70
2023/07/07 04:53:41;;;;;;;12.90;8.05;;;;;;;24.22;67.18;99250.78;5116420;27;20034;-69
2023/07/07 04:56:19;;;;;;;13.30;8.50;;;;;;;24.04;67.43;99245.88;5116572;27;20061;-69
2023/07/07 04:58:48;;;;;;;11.25;9.40;;;;;;;23.99;67.78;99245.66;5116524;27;20400;-73
2023/07/07 05:01:26;;;;;;;13.32;8.75;;;;;;;23.92;68.26;99250.25;5097297;27;20050;-72
2023/07/07 05:03:54;;;;;;;10.70;8.82;;;;;;;23.67;69.09;99249.13;5080859;27;20539;-73
2023/07/07 05:06:21;;;;;;;11.18;8.02;;;;;;;23.76;68.77;99247.88;5116391;27;20050;-73
2023/07/07 05:08:46;;;;;;;8.93;7.97;;;;;;;23.84;69.16;99244.97;5116344;27;20492;-73
2023/07/07 05:11:15;;;;;;;9.88;8.18;;;;;;;24.04;68.05;99247.78;5097455;27;20047;-73
2023/07/07 05:13:41;;;;;;;9.18;8.20;;;;;;;23.99;68.60;99240.22;5116216;27;20043;-72
2023/07/07 05:16:11;;;;;;;12.88;9.50;;;;;;;24.11;68.49;99241.28;5097790;27;20043;-73
2023/07/07 05:18:36;;;;;;;13.52;8.20;;;;;;;24.26;68.11;99229.41;5097725;27;20035;-73
2023/07/07 05:21:03;;;;;;;15.48;8.35;;;;;;;24.45;67.40;99239.47;5097747;27;20580;-73
2023/07/07 05:23:28;;;;;;;12.05;8.40;;;;;;;24.68;67.50;99233.63;5116079;27;20038;-73
2023/07/07 05:25:53;;;;;;;11.98;8.48;;;;;;;24.93;66.18;99260.06;5115937;27;20054;-74
2023/07/07 05:28:20;;;;;;;12.15;8.82;;;;;;;25.16;66.21;99242.41;5097605;27;20034;-73
2023/07/07 05:30:45;;;;;;;12.63;9.68;;;;;;;25.47;65.33;99245.25;5115636;27;20043;-73
2023/07/07 05:33:11;;;;;;;12.82;8.98;;;;;;;25.33;64.92;99233.53;5097306;27;20053;-73
2023/07/07 05:35:44;;;;;;;11.38;8.38;;;;;;;25.38;64.65;99251.16;5116333;27;20047;-73
2023/07/07 05:38:09;;;;;;;9.82;7.72;;;;;;;25.57;64.50;99229.25;5115950;27;20034;-74
2023/07/07 05:40:35;;;;;;;13.90;8.43;;;;;;;25.67;64.29;99228.81;5097211;27;20053;-74
2023/07/07 05:43:00;;;;;;;11.23;8.40;;;;;;;25.84;63.75;99230.03;5079914;27;20049;-76
2023/07/07 05:45:25;;;;;;;10.90;8.57;;;;;;;25.86;63.17;99235.22;5097726;27;20060;-74
2023/07/07 05:47:50;;;;;;;16.63;8.60;;;;;;;25.90;63.20;99236.47;5115893;27;20042;-74
2023/07/07 05:50:15;;;;;;;11.05;8.32;;;;;;;25.88;63.24;99261.28;5115850;27;20043;-73
2023/07/07 05:52:41;;;;;;;13.18;8.55;;;;;;;25.91;63.20;99233.53;5115755;27;20369;-72
2023/07/07 05:55:07;;;;;;;13.32;8.23;;;;;;;25.84;62.69;99234.66;5115515;27;20043;-73
2023/07/07 05:57:32;;;;;;;12.02;8.13;;;;;;;25.84;63.07;99234.66;5115797;27;20042;-74
2023/07/07 05:59:57;;;;;;;10.48;8.15;;;;;;;25.78;63.20;99230.88;5115768;27;20405;-70
2023/07/07 06:02:22;;;;;;;9.95;7.03;;;;;;;25.81;63.04;99232.34;5115744;27;20516;-70
2023/07/07 06:04:47;;;;;;;9.50;7.95;;;;;;;25.82;63.41;99231.28;5115522;27;20062;-69
2023/07/07 06:07:13;;;;;;;8.88;7.63;;;;;;;25.87;63.33;99223.25;5115217;27;20043;-70
2023/07/07 06:09:38;;;;;;;11.13;8.02;;;;;;;26.04;63.00;99230.75;5096750;27;20038;-69
2023/07/07 06:12:04;;;;;;;10.20;7.57;;;;;;;26.16;62.46;99225.41;5115321;27;20050;-69
2023/07/07 06:14:29;;;;;;;10.68;7.57;;;;;;;26.26;62.09;99225.75;5061944;27;20050;-69
2023/07/07 06:16:55;;;;;;;11.68;7.78;;;;;;;26.14;61.74;99224.78;5115730;27;20057;-68
2023/07/07 06:19:20;;;;;;;13.55;8.23;;;;;;;25.83;62.30;99217.41;5096938;27;20051;-70
2023/07/07 06:21:45;;;;;;;11.80;8.55;;;;;;;25.64;63.21;99218.31;5097145;27;20057;-69
2023/07/07 06:24:10;;;;;;;15.18;7.97;;;;;;;25.54;63.41;99210.56;5117745;27;20059;-69
2023/07/07 06:26:35;;;;;;;11.88;8.73;;;;;;;25.45;64.04;99209.16;5119519;27;20047;-69
2023/07/07 06:29:00;;;;;;;12.43;8.20;;;;;;;25.44;64.24;99212.94;5121777;27;20488;-69
2023/07/07 06:31:27;;;;;;;9.73;8.40;;;;;;;25.49;64.06;99220.47;5104428;27;20054;-70
2023/07/07 06:33:52;;;;;;;14.93;11.45;;;;;;;25.53;64.52;99216.25;5103433;27;20043;-68
2023/07/07 06:36:17;;;;;;;12.27;8.93;;;;;;;25.58;64.53;99202.78;5119368;27;20497;-71
2023/07/07 06:38:43;;;;;;;11.45;7.88;;;;;;;25.65;64.76;99209.09;5100452;27;20065;-70
2023/07/07 06:41:11;;;;;;;11.15;8.50;;;;;;;25.81;63.96;99213.22;5118902;27;20050;-69
2023/07/07 06:43:36;;;;;;;10.35;8.23;;;;;;;25.92;63.93;99226.19;5119283;27;20031;-69
2023/07/07 06:46:01;;;;;;;11.77;8.63;;;;;;;26.00;63.52;99234.94;5119085;27;20046;-69
2023/07/07 06:48:27;;;;;;;10.00;7.72;;;;;;;25.95;62.63;99221.13;5118911;27;20619;-70
2023/07/07 06:50:52;;;;;;;10.18;8.70;;;;;;;25.85;63.27;99225.38;5119277;27;20101;-69
2023/07/07 06:53:17;;;;;;;12.55;8.05;;;;;;;25.75;63.30;99225.00;5119082;27;20045;-69
2023/07/07 06:55:43;;;;;;;14.73;8.48;;;;;;;25.56;63.74;99221.28;5118811;27;20053;-69
2023/07/07 06:58:11;;;;;;;12.82;9.38;;;;;;;25.44;64.45;99193.81;5118735;27;20042;-70
2023/07/07 07:00:36;;;;;;;15.65;9.13;;;;;;;25.32;64.43;99215.47;5100359;27;20112;-70
2023/07/07 07:03:01;;;;;;;16.00;11.95;;;;;;;25.25;64.88;99225.59;5118996;27;20050;-71
2023/07/07 07:05:27;;;;;;;12.23;8.50;;;;;;;25.19;65.10;99228.31;5118872;27;20054;-69
2023/07/07 07:07:52;;;;;;;10.32;7.38;;;;;;;25.15;65.14;99236.13;5118649;27;20038;-70
2023/07/07 07:10:17;;;;;;;12.48;7.80;;;;;;;25.10;65.41;99260.44;5118419;27;20049;-70
2023/07/07 07:12:42;;;;;;;12.75;8.75;;;;;;;25.09;65.47;99255.19;5118841;27;20124;-69
2023/07/07 07:15:09;;;;;;;11.35;8.25;;;;;;;24.95;65.62;99268.84;5100126;27;20046;-70
2023/07/07 07:17:35;;;;;;;9.90;7.28;;;;;;;24.79;65.90;99284.78;5118480;27;20053;-69
2023/07/07 07:20:00;;;;;;;9.52;8.05;;;;;;;24.67;65.77;99281.00;5118402;27;20039;-70
2023/07/07 07:22:26;;;;;;;11.50;7.93;;;;;;;24.51;65.87;99283.06;5118394;27;20038;-69
2023/07/07 07:24:51;;;;;;;12.45;8.02;;;;;;;24.41;66.97;99292.72;5118463;27;20042;-69
2023/07/07 07:27:16;;;;;;;12.30;8.32;;;;;;;24.48;66.24;99304.47;5118691;27;20050;-70
2023/07/07 07:29:43;;;;;;;9.90;8.32;;;;;;;24.38;67.00;99309.50;5118201;27;20543;-69
2023/07/07 07:32:08;;;;;;;12.38;8.05;;;;;;;24.49;67.47;99311.59;5118316;27;20044;-70
2023/07/07 07:34:33;;;;;;;9.77;8.20;;;;;;;24.73;66.52;99326.50;5099577;27;20042;-69
2023/07/07 07:37:02;;;;;;;12.48;7.80;;;;;;;24.93;66.51;99328.25;5118251;27;20050;-69
2023/07/07 07:39:28;;;;;;;13.85;9.70;;;;;;;24.99;65.61;99329.28;5099237;27;20038;-69
2023/07/07 07:41:55;;;;;;;10.70;8.05;;;;;;;24.93;66.13;99335.59;5117945;27;20034;-70
2023/07/07 07:44:22;;;;;;;13.30;8.30;;;;;;;24.86;66.34;99340.16;5118132;27;20073;-69
2023/07/07 07:46:50;;;;;;;10.68;8.02;;;;;;;24.91;66.83;99348.56;5118042;27;20046;-70
2023/07/07 07:49:16;;;;;;;13.02;9.45;;;;;;;25.00;66.51;99355.50;5118149;27;20073;-69
2023/07/07 07:51:41;;;;;;;14.63;8.90;;;;;;;24.89;66.70;99361.56;5117872;27;20516;-70
2023/07/07 07:54:09;;;;;;;11.55;8.25;;;;;;;24.50;67.89;99374.06;5117605;27;20061;-70
2023/07/07 07:56:35;;;;;;;12.02;9.18;;;;;;;23.92;69.63;99367.34;5117888;27;20038;-70
2023/07/07 07:59:00;;;;;;;13.57;8.93;;;;;;;23.41;71.50;99373.06;5117813;27;20512;-69
2023/07/07 08:01:26;;;;;;;11.32;9.60;;;;;;;22.83;73.67;99363.38;5117883;27;20040;-68
2023/07/07 08:03:51;;;;;;;12.23;9.07;;;;;;;22.40;75.79;99359.78;5117680;27;20058;-69
2023/07/07 08:06:16;;;;;;;12.05;9.40;;;;;;;22.02;77.43;99353.66;5117441;27;20038;-68
2023/07/07 08:08:41;;;;;;;10.02;8.75;;;;;;;21.88;78.05;99340.97;5082116;27;20050;-69
2023/07/07 08:11:11;;;;;;;14.18;10.27;;;;;;;21.68;79.83;99337.97;5098941;27;20046;-67
2023/07/07 08:13:36;;;;;;;13.90;9.68;;;;;;;21.64;80.43;99323.94;5117326;27;20042;-69
2023/07/07 08:16:02;;;;;;;12.55;10.35;;;;;;;21.66;81.07;99329.19;5098936;27;20041;-68
2023/07/07 08:18:27;;;;;;;11.85;10.07;;;;;;;21.54;81.26;99327.97;5117200;27;20524;-69
2023/07/07 08:20:53;;;;;;;10.75;9.32;;;;;;;21.33;81.87;99313.25;5117259;27;20035;-69
2023/07/07 08:23:18;;;;;;;14.80;11.00;;;;;;;21.32;83.15;99308.06;5081613;27;20046;-71
2023/07/07 08:25:45;;;;;;;13.48;10.82;;;;;;;21.08;84.03;99295.56;5117586;27;20046;-71
2023/07/07 08:28:10;;;;;;;15.02;10.13;;;;;;;21.11;84.76;99283.50;5117138;27;20049;-72
2023/07/07 08:30:36;;;;;;;15.38;11.20;;;;;;;21.18;85.67;99269.06;5117203;27;20046;-71
2023/07/07 08:33:01;;;;;;;13.40;10.40;;;;;;;21.25;86.54;99247.44;5117032;27;20038;-73
2023/07/07 08:35:26;;;;;;;15.43;11.70;;;;;;;21.29;87.14;99255.03;5116967;27;20042;-72
2023/07/07 08:37:51;;;;;;;15.90;11.40;;;;;;;21.27;87.81;99265.22;5117085;27;20046;-72
2023/07/07 08:40:20;;;;;;;19.42;11.85;;;;;;;21.29;88.29;99282.16;5116900;27;20061;-73
2023/07/07 08:42:46;;;;;;;14.13;10.63;;;;;;;21.33;89.02;99293.47;5080711;27;20046;-73
2023/07/07 08:45:15;;;;;;;14.10;11.48;;;;;;;21.40;88.79;99288.13;5116966;27;20378;-72
2023/07/07 08:48:20;;;;;;;13.80;12.23;;;;;;;21.53;88.69;99277.47;5116347;27;20500;-72
2023/07/07 08:50:58;;;;;;;18.08;11.85;;;;;;;21.48;88.92;99275.31;5116702;27;20045;-71
2023/07/07 08:53:53;;;;;;;15.68;12.02;;;;;;;21.53;89.61;99266.63;5116657;27;20030;-72
2023/07/07 08:56:33;;;;;;;19.02;11.88;;;;;;;21.60;90.29;99267.53;5116677;27;20051;-72
2023/07/07 08:59:01;;;;;;;17.42;12.18;;;;;;;21.63;90.74;99283.44;5116599;27;20065;-74
2023/07/07 09:01:45;;;;;;;15.07;11.93;;;;;;;21.79;91.04;99287.78;5116522;27;20042;-71
2023/07/07 09:04:48;;;;;;;18.00;11.80;;;;;;;21.83;90.25;99276.38;5116211;27;20046;-73
2023/07/07 09:07:25;;;;;;;16.85;12.57;;;;;;;21.79;90.91;99263.38;5116331;27;20043;-72
2023/07/07 09:09:51;;;;;;;17.88;13.13;;;;;;;21.82;91.38;99277.41;5116304;27;20039;-71
2023/07/07 09:13:00;;;;;;;16.02;12.43;;;;;;;21.96;91.66;99278.41;5097706;27;20105;-72
2023/07/07 09:15:41;;;;;;;16.10;12.70;;;;;;;22.01;91.39;99284.13;5015814;28;20048;-71
2023/07/07 09:18:33;;;;;;;15.55;11.75;;;;;;;22.00;91.04;99279.75;5032679;28;20379;-72
2023/07/07 09:21:03;;;;;;;15.73;12.07;;;;;;;21.95;91.21;99282.16;5032797;28;20545;-73
2023/07/07 09:23:39;;;;;;;14.05;12.50;;;;;;;21.91;90.73;99265.41;5032893;28;20040;-71
2023/07/07 09:26:30;;;;;;;15.57;12.45;;;;;;;21.89;91.29;99278.34;5015938;28;20052;-71
2023/07/07 09:28:58;;;;;;;15.15;12.30;;;;;;;21.78;91.68;99278.84;5032708;28;20068;-71
2023/07/07 09:31:31;;;;;;;16.65;13.52;;;;;;;21.83;92.25;99279.09;5032471;28;20048;-72
2023/07/07 09:33:59;;;;;;;16.55;14.80;;;;;;;21.90;92.82;99296.28;5032542;28;20509;-72
2023/07/07 09:36:31;;;;;;;17.10;13.10;;;;;;;22.09;93.47;99273.16;5032638;28;20922;-73
2023/07/07 09:39:07;;;;;;;17.92;13.55;;;;;;;22.23;93.84;99285.03;5031621;28;20041;-72
2023/07/07 09:42:03;;;;;;;15.65;13.30;;;;;;;22.38;93.38;99281.19;4999216;28;20051;-75
2023/07/07 09:45:01;;;;;;;16.27;11.93;;;;;;;22.50;93.87;99280.66;5024053;28;20470;-72
2023/07/07 09:47:54;;;;;;;15.20;13.15;;;;;;;22.68;93.82;99298.22;5016092;28;20055;-73
2023/07/07 09:50:37;;;;;;;15.38;12.68;;;;;;;22.69;93.55;99299.00;5052336;27;20412;-72
2023/07/07 09:53:16;;;;;;;16.80;12.73;;;;;;;22.71;91.83;99292.34;5115728;27;20039;-71
2023/07/07 09:55:41;;;;;;;16.65;14.02;;;;;;;22.73;90.39;99303.88;5116025;27;20050;-72
2023/07/07 09:58:22;;;;;;;20.50;14.02;;;;;;;22.75;92.29;99307.28;5116511;27;20891;-71
2023/07/07 10:00:52;;;;;;;18.42;12.40;;;;;;;22.53;91.79;99297.44;5121098;27;20037;-73
2023/07/07 10:03:40;;;;;;;18.83;13.40;;;;;;;22.64;91.45;99299.63;5120087;27;20059;-73
2023/07/07 10:06:14;;;;;;;17.08;13.40;;;;;;;23.38;92.03;99297.28;5101615;27;20420;-71
2023/07/07 10:08:39;;;;;;;16.25;14.38;;;;;;;24.02;92.14;99283.38;5119950;27;20051;-71
2023/07/07 10:11:47;;;;;;;17.48;13.88;;;;;;;24.55;92.65;99278.91;5120196;27;20097;-71
2023/07/07 10:14:15;;;;;;;16.38;12.55;;;;;;;24.66;89.60;99212.03;5056417;28;20090;-72
2023/07/07 10:16:47;;;;;;;13.30;11.50;;;;;;;24.85;89.81;99199.41;5038481;28;20047;-73
2023/07/07 10:19:13;;;;;;;13.05;10.57;;;;;;;25.09;90.61;99197.91;5038932;28;20549;-71
2023/07/07 10:21:38;;;;;;;18.15;11.60;;;;;;;25.50;89.87;99197.59;5055588;28;20032;-71
2023/07/07 10:24:05;;;;;;;15.80;11.68;;;;;;;25.53;86.98;99189.78;5038531;28;20074;-72
2023/07/07 10:26:30;;;;;;;14.43;11.93;;;;;;;25.46;87.49;99193.59;5055497;28;20032;-73
2023/07/07 10:28:59;;;;;;;11.77;10.57;;;;;;;25.35;85.31;99208.78;5055518;28;20478;-75
2023/07/07 10:31:26;;;;;;;13.68;10.38;;;;;;;25.02;81.11;99218.94;5055594;28;20052;-72
2023/07/07 10:34:02;;;;;;;14.68;11.88;;;;;;;24.55;77.91;99218.94;5055133;28;20062;-72
2023/07/07 10:36:30;;;;;;;12.07;10.52;;;;;;;24.13;81.12;99209.25;5043405;28;20044;-72
2023/07/07 10:38:57;;;;;;;12.27;10.95;;;;;;;23.70;84.20;99202.44;5055571;28;20513;-72
2023/07/07 10:41:23;;;;;;;13.52;12.13;;;;;;;23.38;83.96;99209.38;5055717;28;20521;-73
2023/07/07 10:43:49;;;;;;;15.00;11.35;;;;;;;23.10;81.79;99207.56;5038230;28;20050;-73
2023/07/07 10:46:14;;;;;;;16.20;11.07;;;;;;;22.71;81.75;99201.84;5054194;28;20449;-72
2023/07/07 10:48:46;;;;;;;14.27;12.13;;;;;;;22.39;81.88;99203.25;5049994;28;20051;-73
2023/07/07 10:51:39;;;;;;;14.13;12.40;;;;;;;22.50;85.36;99219.03;5100266;27;20057;-72
2023/07/07 10:54:18;;;;;;;14.82;11.63;;;;;;;22.05;84.67;99209.41;5100007;27;20054;-72
2023/07/07 10:56:48;;;;;;;12.70;10.50;;;;;;;21.92;84.02;99198.38;5119092;27;20038;-72
2023/07/07 10:59:26;;;;;;;17.13;11.48;;;;;;;21.86;83.77;99197.31;5083070;27;20047;-71
2023/07/07 11:02:36;;;;;;;13.20;10.45;;;;;;;21.76;83.25;99188.63;5095430;27;20042;-67
2023/07/07 11:05:14;;;;;;;13.68;11.77;;;;;;;21.76;84.11;99174.22;5001820;28;20049;-67
2023/07/07 11:08:17;;;;;;;14.50;10.35;;;;;;;21.72;83.82;99179.19;5014615;28;20429;-66
2023/07/07 11:11:10;;;;;;;12.85;10.68;;;;;;;21.82;83.64;99192.44;4986476;28;20049;-67
2023/07/07 11:14:04;;;;;;;10.75;9.65;;;;;;;21.83;82.67;99213.97;5014257;28;20049;-66
2023/07/07 11:16:39;;;;;;;12.02;10.82;;;;;;;21.98;84.90;99217.50;5012548;28;20064;-66
2023/07/07 11:19:22;;;;;;;;;;;;;;;22.25;88.03;99217.75;5012440;28;20056;-65
2023/07/07 11:22:24;;;;;;;11.88;10.20;;;;;;;22.16;87.77;99218.91;5012573;28;20288;-67
2023/07/07 11:25:01;;;;;;;13.65;10.07;;;;;;;22.33;85.18;99217.63;5008206;28;20044;-66
2023/07/07 11:28:03;;;;;;;11.63;9.40;;;;;;;22.58;85.39;99210.72;5002266;28;20072;-66
2023/07/07 11:30:46;;;;;;;14.10;10.23;;;;;;;22.96;87.74;99210.41;5013364;28;20431;-67
2023/07/07 11:33:24;;;;;;;15.32;10.55;;;;;;;23.18;88.57;99207.41;4994065;28;20052;-67
2023/07/07 11:36:15;;;;;;;12.15;8.77;;;;;;;23.12;87.19;99185.63;5008599;28;20068;-67